createdAt,value
2018-01-12T00:00:01.959Z,24.05
2018-01-12T00:02:29.393Z,22.75
2018-01-12T00:04:56.816Z,22.98
2018-01-12T00:07:25.016Z,22.17
2018-01-12T00:09:53.228Z,21.48
2018-01-12T00:12:20.656Z,22.13
2018-01-12T00:14:48.835Z,22.58
2018-01-12T00:17:16.255Z,22.67
2018-01-12T00:19:43.711Z,22.58
2018-01-12T00:22:12.059Z,23.35
2018-01-12T00:24:40.251Z,22.30
2018-01-12T00:27:07.763Z,23.50
2018-01-12T00:29:35.235Z,23.02
2018-01-12T00:32:02.708Z,21.77
2018-01-12T00:34:30.176Z,22.20
2018-01-12T00:36:57.591Z,21.25
2018-01-12T00:39:25.019Z,20.83
2018-01-12T00:41:52.656Z,20.35
2018-01-12T00:44:20.848Z,20.90
2018-01-12T00:46:49.058Z,21.87
2018-01-12T00:49:16.471Z,21.58
2018-01-12T00:51:43.895Z,21.37
2018-01-12T00:54:11.319Z,20.98
2018-01-12T00:56:38.739Z,20.90
2018-01-12T00:59:06.168Z,20.12
2018-01-12T01:01:34.359Z,19.48
2018-01-12T01:04:02.556Z,20.05
2018-01-12T01:06:30.764Z,19.73
2018-01-12T01:08:58.191Z,19.52
2018-01-12T01:11:25.612Z,18.73
2018-01-12T01:13:53.068Z,18.80
2018-01-12T01:16:20.543Z,20.23
2018-01-12T01:18:48.027Z,18.95
2018-01-12T01:21:15.475Z,19.87
2018-01-12T01:23:42.903Z,18.12
2018-01-12T01:26:10.420Z,18.85
2018-01-12T01:28:37.847Z,18.58
2018-01-12T01:31:06.076Z,19.00
2018-01-12T01:33:33.508Z,17.00
2018-01-12T01:36:00.927Z,18.35
2018-01-12T01:38:28.391Z,18.77
2018-01-12T01:40:55.852Z,18.20
2018-01-12T01:43:23.324Z,18.48
2018-01-12T01:45:51.051Z,18.12
2018-01-12T01:48:30.343Z,18.02
2018-01-12T01:50:57.816Z,18.60
2018-01-12T01:53:26.051Z,17.75
2018-01-12T01:55:53.468Z,17.75
2018-01-12T01:58:20.904Z,17.70
2018-01-12T02:00:48.408Z,16.80
2018-01-12T02:03:15.835Z,18.30
2018-01-12T02:05:43.255Z,16.67
2018-01-12T02:08:10.727Z,17.52
2018-01-12T02:10:38.143Z,17.67
2018-01-12T02:13:05.664Z,16.12
2018-01-12T02:15:33.079Z,17.45
2018-01-12T02:18:00.515Z,16.92
2018-01-12T02:20:27.964Z,17.98
2018-01-12T02:22:56.304Z,18.05
2018-01-12T02:25:23.932Z,16.95
2018-01-12T02:27:52.124Z,18.12
2018-01-12T02:30:19.552Z,18.20
2018-01-12T02:32:47.735Z,17.95
2018-01-12T02:35:15.956Z,17.27
2018-01-12T02:37:43.371Z,18.27
2018-01-12T02:40:10.804Z,18.17
2018-01-12T02:42:38.228Z,17.80
2018-01-12T02:45:05.665Z,17.42
2018-01-12T02:47:33.099Z,17.12
2018-01-12T02:50:00.532Z,17.58
2018-01-12T02:52:27.947Z,16.62
2018-01-12T02:54:55.417Z,17.90
2018-01-12T02:57:22.836Z,17.35
2018-01-12T02:59:50.264Z,17.35
2018-01-12T03:02:17.679Z,17.23
2018-01-12T03:04:45.875Z,17.58
2018-01-12T03:07:14.088Z,16.02
2018-01-12T03:09:41.563Z,16.35
2018-01-12T03:12:08.992Z,17.05
2018-01-12T03:14:36.504Z,18.60
2018-01-12T03:17:03.927Z,19.02
2018-01-12T03:19:31.435Z,18.65
2018-01-12T03:21:58.916Z,17.58
2018-01-12T03:24:26.344Z,16.85
2018-01-12T03:26:53.851Z,16.08
2018-01-12T03:29:21.284Z,16.77
2018-01-12T03:31:49.508Z,16.02
2018-01-12T03:34:16.979Z,17.50
2018-01-12T03:36:44.450Z,17.83
2018-01-12T03:39:11.924Z,17.23
2018-01-12T03:41:39.344Z,18.27
2018-01-12T03:44:06.860Z,19.25
2018-01-12T03:46:34.292Z,17.98
2018-01-12T03:49:02.518Z,18.30
2018-01-12T03:51:29.935Z,18.12
2018-01-12T03:53:57.359Z,17.50
2018-01-12T03:56:24.783Z,16.87
2018-01-12T03:58:53.003Z,16.35
2018-01-12T04:01:20.420Z,16.95
2018-01-12T04:03:47.851Z,15.88
2018-01-12T04:06:15.267Z,16.48
2018-01-12T04:08:42.760Z,15.80
2018-01-12T04:11:10.111Z,15.90
2018-01-12T04:13:38.303Z,16.10
2018-01-12T04:16:06.496Z,16.85
2018-01-12T04:18:34.708Z,16.33
2018-01-12T04:21:02.136Z,16.90
2018-01-12T04:23:29.655Z,18.37
2018-01-12T04:25:57.124Z,16.12
2018-01-12T04:28:24.587Z,17.30
2018-01-12T04:30:52.063Z,16.52
2018-01-12T04:33:19.532Z,17.98
2018-01-12T04:35:46.999Z,16.33
2018-01-12T04:38:14.419Z,17.35
2018-01-12T04:40:41.937Z,17.20
2018-01-12T04:43:09.411Z,18.37
2018-01-12T04:45:36.844Z,16.62
2018-01-12T04:48:05.064Z,18.10
2018-01-12T04:50:32.496Z,16.73
2018-01-12T04:52:59.911Z,16.55
2018-01-12T04:55:27.344Z,17.92
2018-01-12T04:57:55.536Z,18.23
2018-01-12T05:00:23.771Z,19.10
2018-01-12T05:02:51.192Z,17.90
2018-01-12T05:05:19.408Z,19.02
2018-01-12T05:07:47.022Z,18.00
2018-01-12T05:10:15.245Z,17.95
2018-01-12T05:12:43.461Z,18.62
2018-01-12T05:15:10.924Z,17.23
2018-01-12T05:17:38.400Z,17.35
2018-01-12T05:20:05.833Z,18.15
2018-01-12T05:22:34.052Z,17.73
2018-01-12T05:25:01.519Z,16.87
2018-01-12T05:27:28.989Z,19.05
2018-01-12T05:29:56.416Z,19.17
2018-01-12T05:32:23.834Z,16.45
2018-01-12T05:34:51.278Z,16.35
2018-01-12T05:37:19.479Z,19.75
2018-01-12T05:39:46.911Z,19.98
2018-01-12T05:42:14.331Z,18.40
2018-01-12T05:44:41.755Z,19.05
2018-01-12T05:47:09.974Z,19.30
2018-01-12T05:49:37.406Z,20.55
2018-01-12T05:52:04.824Z,19.65
2018-01-12T05:54:32.280Z,19.70
2018-01-12T05:56:59.755Z,18.73
2018-01-12T05:59:27.246Z,17.80
2018-01-12T06:02:06.516Z,19.50
2018-01-12T06:04:45.794Z,18.50
2018-01-12T06:07:13.979Z,19.05
2018-01-12T06:09:42.192Z,19.42
2018-01-12T06:12:09.612Z,19.27
2018-01-12T06:14:38.564Z,20.20
2018-01-12T06:17:06.036Z,19.02
2018-01-12T06:19:33.468Z,17.87
2018-01-12T06:22:01.692Z,19.58
2018-01-12T06:24:29.159Z,18.67
2018-01-12T06:26:56.627Z,20.52
2018-01-12T06:29:24.064Z,19.70
2018-01-12T06:31:52.247Z,20.08
2018-01-12T06:34:20.439Z,19.00
2018-01-12T06:36:48.660Z,18.67
2018-01-12T06:39:16.093Z,20.23
2018-01-12T06:41:44.279Z,20.73
2018-01-12T06:44:12.504Z,21.00
2018-01-12T06:46:39.919Z,21.50
2018-01-12T06:49:07.343Z,20.88
2018-01-12T06:54:12.620Z,21.35
2018-01-12T06:56:40.096Z,21.80
2018-01-12T06:59:07.526Z,21.80
2018-01-12T07:01:34.955Z,20.52
2018-01-12T07:04:02.397Z,20.73
2018-01-12T07:06:29.832Z,20.40
2018-01-12T07:11:31.652Z,21.85
2018-01-12T07:13:59.892Z,20.42
2018-01-12T07:16:28.036Z,21.33
2018-01-12T07:18:55.447Z,20.33
2018-01-12T07:21:34.655Z,21.48
2018-01-12T07:24:02.083Z,19.52
2018-01-12T07:26:29.596Z,20.02
2018-01-12T07:28:57.067Z,20.37
2018-01-12T07:31:24.536Z,22.20
2018-01-12T07:33:51.960Z,21.85
2018-01-12T07:36:19.480Z,21.08
2018-01-12T07:38:46.954Z,21.75
2018-01-12T07:41:14.412Z,21.17
2018-01-12T07:43:41.888Z,21.42
2018-01-12T07:46:09.306Z,21.35
2018-01-12T07:48:36.832Z,22.33
2018-01-12T07:51:04.259Z,21.87
2018-01-12T07:53:32.483Z,21.65
2018-01-12T07:55:59.916Z,22.20
2018-01-12T07:58:27.421Z,22.08
2018-01-12T08:01:00.548Z,23.45
2018-01-12T08:03:27.976Z,22.58
2018-01-12T08:05:56.179Z,22.67
2018-01-12T08:08:23.600Z,22.58
2018-01-12T08:10:51.120Z,22.95
2018-01-12T08:13:18.538Z,22.20
2018-01-12T08:15:45.970Z,22.92
2018-01-12T08:18:13.395Z,22.48
2018-01-12T08:20:41.586Z,21.62
2018-01-12T08:23:09.779Z,23.95
2018-01-12T08:25:37.971Z,22.42
2018-01-12T08:28:05.423Z,22.23
2018-01-12T08:30:32.841Z,22.25
2018-01-12T08:33:00.263Z,22.98
2018-01-12T08:35:28.452Z,22.75
2018-01-12T08:37:56.635Z,22.85
2018-01-12T08:40:24.852Z,23.08
2018-01-12T08:42:52.276Z,21.98
2018-01-12T08:45:19.787Z,22.52
2018-01-12T08:47:47.260Z,21.52
2018-01-12T08:50:14.730Z,22.75
2018-01-12T08:52:42.203Z,21.92
2018-01-12T08:55:09.627Z,22.25
2018-01-12T08:57:37.047Z,22.80
2018-01-12T09:00:04.485Z,23.55
2018-01-12T09:02:32.655Z,23.60
2018-01-12T09:05:00.098Z,23.55
2018-01-12T09:07:27.540Z,24.08
2018-01-12T09:09:54.967Z,27.20
2018-01-12T09:12:23.200Z,25.90
2018-01-12T09:14:53.083Z,24.10
2018-01-12T09:17:48.119Z,23.50
2018-01-12T09:20:17.603Z,24.92
2018-01-12T09:22:48.038Z,25.15
2018-01-12T09:25:23.343Z,24.67
2018-01-12T09:27:50.758Z,25.70
2018-01-12T09:30:18.283Z,26.75
2018-01-12T09:32:45.706Z,26.98
2018-01-12T09:35:13.138Z,26.75
2018-01-12T09:37:40.567Z,26.92
2018-01-12T09:40:27.676Z,28.33
2018-01-12T09:42:55.095Z,26.50
2018-01-12T09:45:22.528Z,28.40
2018-01-12T09:51:00.435Z,28.73
2018-01-12T09:53:27.881Z,29.75
2018-01-12T09:55:55.306Z,30.10
2018-01-12T09:58:22.831Z,32.38
2018-01-12T10:01:06.032Z,33.05
2018-01-12T10:03:34.252Z,31.17
2018-01-12T10:06:01.679Z,30.40
2018-01-12T10:08:29.187Z,30.42
2018-01-12T10:10:56.611Z,32.05
2018-01-12T10:13:24.128Z,30.27
2018-01-12T10:15:51.550Z,31.95
2018-01-12T10:18:32.409Z,32.22
2018-01-12T10:21:11.831Z,30.23
2018-01-12T10:23:39.299Z,30.98
2018-01-12T10:26:06.775Z,29.27
2018-01-12T10:28:34.248Z,30.83
2018-01-12T10:31:01.675Z,30.30
2018-01-12T10:33:42.559Z,30.98
2018-01-12T10:36:10.067Z,29.27
2018-01-12T10:38:38.459Z,32.38
2018-01-12T10:41:17.895Z,32.08
2018-01-12T10:43:46.084Z,30.83
2018-01-12T10:46:28.523Z,31.27
2018-01-12T10:48:57.167Z,31.20
2018-01-12T10:51:37.911Z,31.15
2018-01-12T10:54:05.331Z,31.20
2018-01-12T10:56:33.759Z,29.87
2018-01-12T10:59:01.227Z,31.65
2018-01-12T11:01:28.647Z,31.45
2018-01-12T11:03:56.079Z,30.55
2018-01-12T11:06:23.540Z,31.35
2018-01-12T11:08:50.968Z,31.20
2018-01-12T11:11:18.382Z,32.88
2018-01-12T11:13:45.842Z,34.70
2018-01-12T11:16:13.311Z,34.13
2018-01-12T11:18:40.787Z,33.35
2018-01-12T11:21:08.208Z,34.75
2018-01-12T11:23:35.727Z,34.22
2018-01-12T11:26:03.148Z,33.22
2018-01-12T11:28:30.668Z,36.22
2018-01-12T11:30:58.091Z,34.03
2018-01-12T11:33:25.603Z,35.05
2018-01-12T11:35:53.076Z,34.53
2018-01-12T11:38:20.544Z,36.13
2018-01-12T11:40:47.971Z,36.40
2018-01-12T11:43:15.391Z,35.10
2018-01-12T11:45:42.851Z,36.15
2018-01-12T11:48:10.280Z,34.33
2018-01-12T11:50:38.467Z,35.47
2018-01-12T11:53:05.890Z,35.42
2018-01-12T11:55:33.315Z,36.38
2018-01-12T11:58:01.512Z,35.63
2018-01-12T12:00:29.692Z,36.42
2018-01-12T12:02:57.883Z,36.60
2018-01-12T12:05:26.096Z,35.03
2018-01-12T12:07:53.527Z,36.13
2018-01-12T12:10:21.707Z,37.25
2018-01-12T12:12:49.935Z,35.25
2018-01-12T12:15:17.356Z,37.33
2018-01-12T12:17:44.788Z,36.80
2018-01-12T12:20:12.207Z,36.47
2018-01-12T12:22:40.404Z,37.50
2018-01-12T12:25:08.612Z,35.28
2018-01-12T12:27:36.048Z,35.38
2018-01-12T12:30:04.226Z,35.80
2018-01-12T12:32:31.745Z,35.03
2018-01-12T12:34:59.159Z,35.42
2018-01-12T12:37:26.595Z,35.35
2018-01-12T12:39:54.019Z,36.05
2018-01-12T12:42:22.231Z,34.30
2018-01-12T12:44:49.703Z,34.00
2018-01-12T12:47:17.127Z,34.10
2018-01-12T12:49:44.550Z,35.15
2018-01-12T12:52:11.971Z,31.77
2018-01-12T12:54:39.394Z,32.50
2018-01-12T12:57:06.811Z,30.00
2018-01-12T12:59:35.003Z,33.10
2018-01-12T13:02:03.223Z,32.83
2018-01-12T13:04:30.651Z,31.65
2018-01-12T13:06:58.163Z,32.75
2018-01-12T13:09:25.637Z,32.08
2018-01-12T13:11:53.060Z,31.77
2018-01-12T13:14:20.483Z,32.45
2018-01-12T13:16:47.911Z,31.23
2018-01-12T13:19:16.120Z,31.95
2018-01-12T13:21:43.535Z,32.17
2018-01-12T13:24:10.959Z,32.20
2018-01-12T13:26:38.432Z,32.80
2018-01-12T13:29:05.903Z,31.70
2018-01-12T13:31:33.370Z,31.02
2018-01-12T13:34:00.791Z,32.13
2018-01-12T13:36:29.715Z,31.80
2018-01-12T13:38:57.911Z,32.28
2018-01-12T13:41:26.095Z,30.73
2018-01-12T13:43:54.305Z,33.20
2018-01-12T13:46:21.723Z,33.40
2018-01-12T13:48:49.153Z,32.83
2018-01-12T13:51:16.611Z,32.72
2018-01-12T13:53:44.043Z,32.33
2018-01-12T13:56:11.551Z,32.17
2018-01-12T13:58:38.984Z,32.70
2018-01-12T14:01:06.499Z,32.70
2018-01-12T14:03:33.922Z,33.83
2018-01-12T14:06:01.347Z,34.15
2018-01-12T14:08:28.796Z,33.03
2018-01-12T14:10:56.263Z,32.45
2018-01-12T14:13:23.744Z,32.85
2018-01-12T14:15:51.211Z,33.83
2018-01-12T14:18:18.644Z,32.33
2018-01-12T14:20:46.832Z,34.25
2018-01-12T14:23:15.028Z,32.33
2018-01-12T14:25:43.211Z,32.13
2018-01-12T14:28:11.407Z,32.15
2018-01-12T14:30:39.612Z,31.70
2018-01-12T14:33:07.044Z,30.75
2018-01-12T14:35:34.459Z,31.45
2018-01-12T14:38:01.921Z,30.92
2018-01-12T14:40:29.340Z,31.48
2018-01-12T14:42:56.876Z,30.37
2018-01-12T14:45:24.331Z,29.15
2018-01-12T14:47:51.895Z,27.48
2018-01-12T14:50:19.366Z,26.65
2018-01-12T14:52:46.838Z,25.35
2018-01-12T14:55:15.037Z,26.45
2018-01-12T14:57:42.500Z,24.48
2018-01-12T15:00:09.923Z,24.77
2018-01-12T15:02:37.343Z,23.48
2018-01-12T15:05:04.775Z,22.33
2018-01-12T15:07:32.959Z,22.90
2018-01-12T15:10:01.159Z,23.48
2018-01-12T15:12:29.360Z,21.95
2018-01-12T15:14:56.842Z,22.42
2018-01-12T15:17:24.259Z,22.77
2018-01-12T15:19:51.684Z,22.67
2018-01-12T15:22:19.106Z,21.95
2018-01-12T15:24:47.299Z,21.55
2018-01-12T15:27:15.487Z,21.60
2018-01-12T15:29:43.686Z,21.50
2018-01-12T15:32:11.107Z,22.08
2018-01-12T15:34:38.531Z,19.58
2018-01-12T15:37:05.950Z,21.27
2018-01-12T15:39:33.476Z,22.15
2018-01-12T15:42:00.956Z,21.73
2018-01-12T15:44:28.379Z,21.33
2018-01-12T15:46:56.608Z,20.42
2018-01-12T15:49:24.075Z,21.50
2018-01-12T15:51:51.491Z,20.33
2018-01-12T15:54:18.924Z,21.00
2018-01-12T15:56:46.379Z,20.33
2018-01-12T15:59:13.815Z,21.17
2018-01-12T16:01:41.999Z,21.20
2018-01-12T16:04:10.192Z,21.80
2018-01-12T16:06:38.382Z,20.90
2018-01-12T16:09:06.575Z,20.20
2018-01-12T16:11:34.788Z,21.02
2018-01-12T16:14:02.216Z,21.40
2018-01-12T16:16:29.635Z,20.80
2018-01-12T16:18:57.064Z,20.20
2018-01-12T16:21:25.252Z,19.30
2018-01-12T16:23:53.672Z,19.27
2018-01-12T16:26:21.089Z,18.87
2018-01-12T16:28:50.039Z,17.85
2018-01-12T16:31:17.467Z,18.00
2018-01-12T16:33:44.984Z,18.05
2018-01-12T16:36:12.416Z,17.52
2018-01-12T16:38:39.833Z,17.23
2018-01-12T16:41:07.295Z,17.73
2018-01-12T16:43:34.755Z,16.25
2018-01-12T16:46:02.179Z,18.45
2018-01-12T16:48:29.604Z,16.87
2018-01-12T16:50:57.028Z,18.37
2018-01-12T16:53:24.448Z,16.95
2018-01-12T16:55:51.874Z,17.15
2018-01-12T16:58:20.059Z,16.62
2018-01-12T17:00:48.255Z,17.37
2018-01-12T17:03:16.461Z,17.05
2018-01-12T17:05:43.891Z,15.95
2018-01-12T17:08:11.404Z,15.55
2018-01-12T17:10:38.827Z,15.90
2018-01-12T17:13:06.340Z,15.32
2018-01-12T17:15:33.770Z,17.12
2018-01-12T17:18:01.287Z,17.08
2018-01-12T17:20:28.719Z,16.08
2018-01-12T17:22:56.940Z,16.10
2018-01-12T17:25:24.368Z,15.13
2018-01-12T17:27:51.980Z,15.93
2018-01-12T17:30:19.452Z,14.90
2018-01-12T17:32:46.876Z,15.35
2018-01-12T17:35:14.304Z,14.73
2018-01-12T17:37:41.723Z,15.38
2018-01-12T17:40:09.920Z,15.13
2018-01-12T17:42:38.103Z,14.93
2018-01-12T17:45:05.608Z,15.20
2018-01-12T17:47:33.028Z,14.90
2018-01-12T17:50:00.464Z,16.25
2018-01-12T17:52:27.883Z,16.60
2018-01-12T17:54:56.079Z,17.73
2018-01-12T17:57:24.264Z,17.58
2018-01-12T17:59:52.464Z,16.58
2018-01-12T18:02:19.878Z,18.40
2018-01-12T18:04:47.307Z,18.20
2018-01-12T18:07:14.772Z,17.52
2018-01-12T18:09:42.491Z,18.55
2018-01-12T18:12:09.907Z,16.67
2018-01-12T18:14:37.387Z,17.25
2018-01-12T18:17:04.807Z,17.83
2018-01-12T18:19:32.327Z,18.98
2018-01-12T18:21:59.802Z,18.33
2018-01-12T18:24:27.272Z,18.17
2018-01-12T18:26:54.704Z,18.33
2018-01-12T18:29:22.892Z,18.80
2018-01-12T18:31:51.092Z,18.50
2018-01-12T18:34:19.271Z,18.87
2018-01-12T18:36:47.483Z,19.48
2018-01-12T18:39:14.899Z,18.67
2018-01-12T18:41:42.331Z,18.55
2018-01-12T18:44:09.748Z,17.85
2018-01-12T18:46:37.236Z,18.52
2018-01-12T18:49:05.447Z,18.40
2018-01-12T18:51:32.916Z,19.65
2018-01-12T18:54:00.376Z,18.67
2018-01-12T18:56:27.826Z,18.30
2018-01-12T18:58:56.062Z,18.85
2018-01-12T19:01:23.515Z,19.27
2018-01-12T19:03:50.940Z,18.40
2018-01-12T19:06:18.448Z,20.00
2018-01-12T19:08:45.924Z,20.00
2018-01-12T19:11:13.391Z,20.85
2018-01-12T19:13:40.808Z,20.77
2018-01-12T19:16:08.242Z,20.85
2018-01-12T19:18:35.715Z,20.50
2018-01-12T19:21:03.143Z,22.13
2018-01-12T19:23:31.330Z,20.42
2018-01-12T19:25:59.524Z,24.73
2018-01-12T19:28:27.707Z,25.30
2018-01-12T19:30:55.899Z,22.85
2018-01-12T19:33:23.383Z,20.95
2018-01-12T19:35:50.815Z,21.80
2018-01-12T19:38:18.232Z,20.62
2018-01-12T19:40:45.663Z,21.60
2018-01-12T19:43:13.883Z,21.30
2018-01-12T19:45:41.348Z,20.60
2018-01-12T19:48:08.823Z,20.88
2018-01-12T19:50:36.255Z,20.62
2018-01-12T19:53:04.443Z,20.85
2018-01-12T19:55:32.635Z,20.65
2018-01-12T19:58:00.851Z,20.62
2018-01-12T20:00:28.315Z,21.42
2018-01-12T20:02:56.639Z,21.25
2018-01-12T20:05:24.075Z,20.98
2018-01-12T20:07:51.543Z,22.37
2018-01-12T20:10:19.014Z,21.58
2018-01-12T20:12:47.171Z,21.62
2018-01-12T20:15:15.392Z,23.15
2018-01-12T20:17:43.579Z,23.67
2018-01-12T20:20:11.004Z,22.05
2018-01-12T20:22:38.519Z,24.30
2018-01-12T20:25:05.990Z,23.62
2018-01-12T20:27:33.455Z,24.25
2018-01-12T20:30:00.927Z,23.75
2018-01-12T20:32:28.395Z,22.05
2018-01-12T20:34:55.871Z,24.65
2018-01-12T20:37:23.335Z,24.90
2018-01-12T20:39:50.800Z,26.67
2018-01-12T20:42:18.275Z,25.42
2018-01-12T20:44:45.744Z,24.65
2018-01-12T20:47:13.176Z,25.23
2018-01-12T20:49:40.687Z,26.05
2018-01-12T20:52:08.107Z,24.02
2018-01-12T20:54:35.623Z,24.35
2018-01-12T20:57:03.095Z,26.10
2018-01-12T20:59:30.516Z,25.42
2018-01-12T21:01:57.947Z,26.12
2018-01-12T21:04:25.407Z,25.62
2018-01-12T21:06:52.839Z,26.33
2018-01-12T21:09:21.024Z,24.08
2018-01-12T21:11:49.242Z,26.80
2018-01-12T21:14:16.667Z,26.83
2018-01-12T21:16:44.179Z,26.85
2018-01-12T21:19:11.595Z,29.77
2018-01-12T21:21:39.119Z,26.00
2018-01-12T21:24:06.539Z,24.98
2018-01-12T21:26:33.975Z,26.50
2018-01-12T21:29:01.423Z,24.15
2018-01-12T21:31:28.859Z,25.02
2018-01-12T21:33:56.367Z,25.98
2018-01-12T21:36:23.791Z,25.65
2018-01-12T21:38:52.718Z,23.98
2018-01-12T21:41:20.935Z,26.58
2018-01-12T21:43:48.355Z,25.05
2018-01-12T21:46:15.779Z,24.52
2018-01-12T21:48:43.204Z,25.20
2018-01-12T21:51:11.400Z,26.50
2018-01-12T21:53:39.583Z,24.85
2018-01-12T21:56:07.805Z,24.20
2018-01-12T21:58:35.267Z,24.83
2018-01-12T22:01:02.695Z,24.25
2018-01-12T22:03:30.115Z,24.77
2018-01-12T22:05:57.544Z,23.73
2018-01-12T22:08:25.727Z,25.35
2018-01-12T22:10:53.916Z,24.73
2018-01-12T22:13:22.107Z,26.05
2018-01-12T22:15:50.308Z,27.37
2018-01-12T22:18:17.731Z,25.70
2018-01-12T22:20:45.155Z,25.55
2018-01-12T22:23:12.624Z,25.58
2018-01-12T22:25:40.043Z,25.98
2018-01-12T22:28:07.475Z,25.65
2018-01-12T22:30:34.895Z,25.70
2018-01-12T22:33:02.327Z,26.20
2018-01-12T22:35:29.752Z,26.85
2018-01-12T22:37:57.963Z,25.60
2018-01-12T22:40:25.435Z,25.90
2018-01-12T22:42:52.867Z,25.92
2018-01-12T22:45:21.061Z,25.80
2018-01-12T22:47:49.277Z,25.27
2018-01-12T22:50:16.739Z,25.88
2018-01-12T22:52:44.191Z,24.27
2018-01-12T22:55:12.412Z,26.58
2018-01-12T22:57:39.843Z,24.45
2018-01-12T23:00:07.263Z,24.15
2018-01-12T23:02:34.688Z,24.83
2018-01-12T23:05:02.891Z,25.65
2018-01-12T23:07:30.324Z,25.77
2018-01-12T23:09:57.739Z,25.67
2018-01-12T23:12:25.175Z,25.65
2018-01-12T23:14:53.360Z,25.88
2018-01-12T23:17:21.552Z,26.67
2018-01-12T23:19:49.765Z,24.95
2018-01-12T23:22:17.191Z,25.83
2018-01-12T23:24:44.695Z,25.60
2018-01-12T23:27:12.118Z,25.27
2018-01-12T23:29:39.636Z,26.30
2018-01-12T23:32:07.077Z,25.30
2018-01-12T23:34:34.579Z,26.65
2018-01-12T23:37:02.003Z,27.52
2018-01-12T23:39:30.934Z,26.23
2018-01-12T23:41:59.123Z,26.62
2018-01-12T23:44:26.608Z,26.45
2018-01-12T23:46:54.083Z,27.13
2018-01-12T23:49:21.501Z,26.70
2018-01-12T23:51:49.740Z,26.55
2018-01-12T23:54:17.155Z,27.33
2018-01-12T23:56:44.680Z,27.40
2018-01-12T23:59:12.099Z,26.83
